Meskill, Texas
Current Conditions -  °F | °C
As of 6:52 PM on Friday 31 Oct 2014 (Local Time) from KGLS Reporting Station
Clear Clear  
Wind Chill: 72°   Ceiling: Unl
Heat Index: 72°   Visibility: 10mi
Dew Point: 46°   Wind: 21mph
Humidity: 40%   Direction: 350°N
Pressure: 30.16"   Gusts: 29mph
Location:  29.3796°N, 94.9168°W
Report Text: KGLS 312352Z AUTO 35018G25KT 10SM CLR 22/08 A3016 RMK AO2 PK WND 36026/2336 SLP213 T02220078 10250 20222 53010
Loading
Personal Weather Stations






























Interactive Weather Map
Tropical Storm Tracking
New forecast layout! Learn more

10-Day Weather Forecast

Advertisements
Track Severe Weather on mobile